TimeCDT,TemperatureF,Dew PointF,Humidity,Sea Level PressureIn,VisibilityMPH,Wind Direction,Wind SpeedMPH,Gust SpeedMPH,PrecipitationIn,Events,Conditions,WindDirDegrees,DateUTC
12:53 AM,64.0,54.0,70,29.79,10.0,SSE,10.4,-,N/A,,Clear,150,2013-09-24 05:53:00
1:53 AM,63.0,54.0,72,29.78,10.0,SSE,11.5,-,N/A,,Clear,160,2013-09-24 06:53:00
2:53 AM,62.1,54.0,75,29.77,10.0,SSE,11.5,-,N/A,,Partly Cloudy,160,2013-09-24 07:53:00
3:53 AM,62.1,54.0,75,29.76,10.0,SSE,11.5,-,N/A,,Clear,160,2013-09-24 08:53:00
4:53 AM,62.1,54.0,75,29.75,10.0,South,10.4,-,N/A,,Clear,180,2013-09-24 09:53:00
5:53 AM,62.1,54.0,75,29.75,10.0,South,9.2,-,N/A,,Partly Cloudy,180,2013-09-24 10:53:00
6:53 AM,61.0,54.0,78,29.76,10.0,South,8.1,-,N/A,,Clear,180,2013-09-24 11:53:00
7:53 AM,59.0,54.0,83,29.78,10.0,South,4.6,-,N/A,,Clear,190,2013-09-24 12:53:00
8:53 AM,63.0,55.0,75,29.78,10.0,SW,5.8,-,N/A,,Clear,220,2013-09-24 13:53:00
9:53 AM,66.0,55.0,68,29.78,10.0,West,6.9,16.1,N/A,,Clear,260,2013-09-24 14:53:00
10:43 AM,66.2,55.4,68,29.81,10.0,West,8.1,-,N/A,,Mostly Cloudy,280,2013-09-24 15:43:00
10:53 AM,66.0,55.0,68,29.79,10.0,Variable,6.9,-,N/A,,Overcast,0,2013-09-24 15:53:00
11:53 AM,64.9,55.0,70,29.80,10.0,WSW,9.2,-,N/A,,Overcast,250,2013-09-24 16:53:00
12:29 PM,66.2,55.4,68,29.82,10.0,West,5.8,-,N/A,,Overcast,270,2013-09-24 17:29:00
12:37 PM,64.4,55.4,73,29.82,10.0,West,6.9,-,N/A,,Overcast,270,2013-09-24 17:37:00
12:48 PM,66.2,57.2,73,29.82,10.0,Variable,4.6,-,N/A,,Overcast,0,2013-09-24 17:48:00
12:53 PM,66.0,57.0,73,29.81,10.0,WSW,6.9,-,N/A,,Overcast,240,2013-09-24 17:53:00
1:53 PM,64.9,55.9,73,29.81,10.0,West,8.1,-,N/A,,Overcast,280,2013-09-24 18:53:00
2:53 PM,66.9,57.0,70,29.81,10.0,Variable,6.9,-,N/A,,Overcast,0,2013-09-24 19:53:00
3:40 PM,66.2,57.2,73,29.83,10.0,NW,5.8,-,N/A,,Overcast,320,2013-09-24 20:40:00
3:53 PM,66.0,57.0,73,29.81,10.0,NW,8.1,-,N/A,,Overcast,310,2013-09-24 20:53:00
4:39 PM,66.2,57.2,73,29.83,10.0,West,9.2,-,N/A,,Overcast,280,2013-09-24 21:39:00
4:53 PM,66.0,57.0,73,29.82,10.0,WNW,6.9,-,N/A,,Overcast,290,2013-09-24 21:53:00
5:53 PM,68.0,57.0,68,29.82,10.0,NW,8.1,-,N/A,,Scattered Clouds,320,2013-09-24 22:53:00
6:53 PM,66.0,57.0,73,29.83,10.0,NW,6.9,-,N/A,,Clear,320,2013-09-24 23:53:00
7:53 PM,63.0,57.0,81,29.83,10.0,Calm,Calm,-,N/A,,Clear,0,2013-09-25 00:53:00
8:53 PM,62.1,57.0,84,29.83,10.0,Calm,Calm,-,N/A,,Clear,0,2013-09-25 01:53:00
9:53 PM,63.0,57.0,81,29.83,10.0,WNW,4.6,-,N/A,,Clear,300,2013-09-25 02:53:00
10:53 PM,61.0,57.0,87,29.84,10.0,NW,4.6,-,N/A,,Clear,310,2013-09-25 03:53:00
11:53 PM,62.1,57.0,84,29.84,10.0,NNW,5.8,-,N/A,,Clear,340,2013-09-25 04:53:00